sensor_id;sensor_type;location;lat;lon;timestamp;P1;durP1;ratioP1;P2;durP2;ratioP2
14554;SDS011;7364;50.870;4.722;2023-02-15T00:01:54;42.13;;;28.97;;
14554;SDS011;7364;50.870;4.722;2023-02-15T00:04:23;50.20;;;29.83;;
14554;SDS011;7364;50.870;4.722;2023-02-15T00:07:13;39.60;;;29.77;;
14554;SDS011;7364;50.870;4.722;2023-02-15T00:09:42;46.90;;;31.00;;
14554;SDS011;7364;50.870;4.722;2023-02-15T00:12:11;45.07;;;29.57;;
14554;SDS011;7364;50.870;4.722;2023-02-15T00:14:38;47.50;;;30.50;;
14554;SDS011;7364;50.870;4.722;2023-02-15T00:17:05;40.87;;;28.77;;
14554;SDS011;7364;50.870;4.722;2023-02-15T00:19:32;42.77;;;27.90;;
14554;SDS011;7364;50.870;4.722;2023-02-15T00:22:00;38.67;;;28.97;;
14554;SDS011;7364;50.870;4.722;2023-02-15T00:24:29;45.17;;;28.90;;
14554;SDS011;7364;50.870;4.722;2023-02-15T00:26:56;39.23;;;29.60;;
14554;SDS011;7364;50.870;4.722;2023-02-15T00:29:23;45.90;;;28.40;;
14554;SDS011;7364;50.870;4.722;2023-02-15T00:31:51;42.03;;;28.37;;
14554;SDS011;7364;50.870;4.722;2023-02-15T00:34:19;42.63;;;30.17;;
14554;SDS011;7364;50.870;4.722;2023-02-15T00:36:48;41.63;;;29.47;;
14554;SDS011;7364;50.870;4.722;2023-02-15T00:39:17;36.73;;;28.13;;
14554;SDS011;7364;50.870;4.722;2023-02-15T00:41:46;37.93;;;26.93;;
14554;SDS011;7364;50.870;4.722;2023-02-15T00:44:17;44.67;;;28.37;;
14554;SDS011;7364;50.870;4.722;2023-02-15T00:46:44;39.50;;;28.23;;
14554;SDS011;7364;50.870;4.722;2023-02-15T00:49:11;41.47;;;28.27;;
14554;SDS011;7364;50.870;4.722;2023-02-15T00:51:39;36.87;;;27.17;;
14554;SDS011;7364;50.870;4.722;2023-02-15T00:54:06;35.47;;;27.27;;
14554;SDS011;7364;50.870;4.722;2023-02-15T00:56:34;37.73;;;28.80;;
14554;SDS011;7364;50.870;4.722;2023-02-15T00:59:03;41.30;;;28.07;;
14554;SDS011;7364;50.870;4.722;2023-02-15T01:01:30;43.47;;;28.20;;
14554;SDS011;7364;50.870;4.722;2023-02-15T01:06:26;39.17;;;28.13;;
14554;SDS011;7364;50.870;4.722;2023-02-15T01:08:54;38.33;;;27.20;;
14554;SDS011;7364;50.870;4.722;2023-02-15T01:11:22;43.93;;;27.23;;
14554;SDS011;7364;50.870;4.722;2023-02-15T01:13:49;35.10;;;25.40;;
14554;SDS011;7364;50.870;4.722;2023-02-15T01:16:19;50.50;;;25.97;;
14554;SDS011;7364;50.870;4.722;2023-02-15T01:18:47;34.70;;;26.23;;
14554;SDS011;7364;50.870;4.722;2023-02-15T01:21:15;37.07;;;25.33;;
14554;SDS011;7364;50.870;4.722;2023-02-15T01:23:43;41.33;;;27.47;;
14554;SDS011;7364;50.870;4.722;2023-02-15T01:26:11;36.07;;;26.80;;
14554;SDS011;7364;50.870;4.722;2023-02-15T01:28:40;39.83;;;28.33;;
14554;SDS011;7364;50.870;4.722;2023-02-15T01:31:07;42.17;;;27.73;;
14554;SDS011;7364;50.870;4.722;2023-02-15T01:33:37;40.50;;;27.47;;
14554;SDS011;7364;50.870;4.722;2023-02-15T01:36:05;41.17;;;27.00;;
14554;SDS011;7364;50.870;4.722;2023-02-15T01:38:33;41.77;;;26.03;;
14554;SDS011;7364;50.870;4.722;2023-02-15T01:41:01;40.40;;;26.70;;
14554;SDS011;7364;50.870;4.722;2023-02-15T01:43:50;40.37;;;27.73;;
14554;SDS011;7364;50.870;4.722;2023-02-15T01:46:23;35.27;;;25.80;;
14554;SDS011;7364;50.870;4.722;2023-02-15T01:49:00;34.03;;;27.23;;
14554;SDS011;7364;50.870;4.722;2023-02-15T01:51:31;40.17;;;26.93;;
14554;SDS011;7364;50.870;4.722;2023-02-15T01:54:03;35.97;;;27.67;;
14554;SDS011;7364;50.870;4.722;2023-02-15T01:56:37;38.40;;;27.87;;
14554;SDS011;7364;50.870;4.722;2023-02-15T01:59:06;42.23;;;28.13;;
14554;SDS011;7364;50.870;4.722;2023-02-15T02:01:38;43.67;;;28.93;;
14554;SDS011;7364;50.870;4.722;2023-02-15T02:04:08;37.00;;;27.93;;
14554;SDS011;7364;50.870;4.722;2023-02-15T02:06:41;38.77;;;27.00;;
14554;SDS011;7364;50.870;4.722;2023-02-15T02:09:10;42.20;;;29.57;;
14554;SDS011;7364;50.870;4.722;2023-02-15T02:11:39;43.47;;;29.07;;
14554;SDS011;7364;50.870;4.722;2023-02-15T02:14:07;37.37;;;27.00;;
14554;SDS011;7364;50.870;4.722;2023-02-15T02:16:37;50.20;;;30.60;;
14554;SDS011;7364;50.870;4.722;2023-02-15T02:19:26;46.20;;;31.20;;
14554;SDS011;7364;50.870;4.722;2023-02-15T02:25:24;47.97;;;29.73;;
14554;SDS011;7364;50.870;4.722;2023-02-15T02:28:17;42.23;;;26.43;;
14554;SDS011;7364;50.870;4.722;2023-02-15T02:31:07;37.13;;;26.63;;
14554;SDS011;7364;50.870;4.722;2023-02-15T02:33:55;36.27;;;26.20;;
14554;SDS011;7364;50.870;4.722;2023-02-15T02:36:32;46.60;;;28.87;;
14554;SDS011;7364;50.870;4.722;2023-02-15T02:39:13;47.90;;;32.00;;
14554;SDS011;7364;50.870;4.722;2023-02-15T02:41:55;38.60;;;28.97;;
14554;SDS011;7364;50.870;4.722;2023-02-15T02:44:28;41.73;;;27.40;;
14554;SDS011;7364;50.870;4.722;2023-02-15T02:47:02;38.13;;;27.13;;
14554;SDS011;7364;50.870;4.722;2023-02-15T02:49:38;36.53;;;26.80;;
14554;SDS011;7364;50.870;4.722;2023-02-15T02:52:31;37.20;;;28.50;;
14554;SDS011;7364;50.870;4.722;2023-02-15T02:55:08;45.60;;;29.80;;
14554;SDS011;7364;50.870;4.722;2023-02-15T02:57:41;38.17;;;26.93;;
14554;SDS011;7364;50.870;4.722;2023-02-15T03:00:14;40.40;;;28.53;;
14554;SDS011;7364;50.870;4.722;2023-02-15T03:02:44;40.30;;;28.27;;
14554;SDS011;7364;50.870;4.722;2023-02-15T03:05:19;39.40;;;27.97;;
14554;SDS011;7364;50.870;4.722;2023-02-15T03:07:51;43.70;;;28.67;;
14554;SDS011;7364;50.870;4.722;2023-02-15T03:10:22;42.77;;;28.97;;
14554;SDS011;7364;50.870;4.722;2023-02-15T03:12:51;35.80;;;27.30;;
14554;SDS011;7364;50.870;4.722;2023-02-15T03:15:20;43.27;;;28.40;;
14554;SDS011;7364;50.870;4.722;2023-02-15T03:17:51;40.23;;;27.63;;
14554;SDS011;7364;50.870;4.722;2023-02-15T03:20:24;37.23;;;26.30;;
14554;SDS011;7364;50.870;4.722;2023-02-15T03:22:55;38.63;;;28.57;;
14554;SDS011;7364;50.870;4.722;2023-02-15T03:25:26;41.57;;;27.60;;
14554;SDS011;7364;50.870;4.722;2023-02-15T03:27:59;38.63;;;26.60;;
14554;SDS011;7364;50.870;4.722;2023-02-15T03:30:29;42.53;;;28.60;;
14554;SDS011;7364;50.870;4.722;2023-02-15T03:32:58;43.73;;;29.50;;
14554;SDS011;7364;50.870;4.722;2023-02-15T03:35:33;46.30;;;27.00;;
14554;SDS011;7364;50.870;4.722;2023-02-15T03:38:05;46.97;;;27.47;;
14554;SDS011;7364;50.870;4.722;2023-02-15T03:40:36;43.87;;;29.03;;
14554;SDS011;7364;50.870;4.722;2023-02-15T03:43:37;38.50;;;28.03;;
14554;SDS011;7364;50.870;4.722;2023-02-15T03:46:13;41.10;;;27.97;;
14554;SDS011;7364;50.870;4.722;2023-02-15T03:48:49;40.53;;;28.37;;
14554;SDS011;7364;50.870;4.722;2023-02-15T03:51:25;37.67;;;29.10;;
14554;SDS011;7364;50.870;4.722;2023-02-15T03:54:03;35.33;;;26.30;;
14554;SDS011;7364;50.870;4.722;2023-02-15T03:56:35;35.53;;;27.57;;
14554;SDS011;7364;50.870;4.722;2023-02-15T03:59:04;43.20;;;28.30;;
14554;SDS011;7364;50.870;4.722;2023-02-15T04:01:53;41.97;;;26.70;;
14554;SDS011;7364;50.870;4.722;2023-02-15T04:04:32;45.70;;;29.27;;
14554;SDS011;7364;50.870;4.722;2023-02-15T04:07:03;44.13;;;28.10;;
14554;SDS011;7364;50.870;4.722;2023-02-15T04:09:33;44.07;;;28.53;;
14554;SDS011;7364;50.870;4.722;2023-02-15T04:12:17;40.23;;;28.10;;
14554;SDS011;7364;50.870;4.722;2023-02-15T04:14:44;38.20;;;28.03;;
14554;SDS011;7364;50.870;4.722;2023-02-15T04:17:29;36.43;;;26.27;;
14554;SDS011;7364;50.870;4.722;2023-02-15T04:19:57;43.57;;;27.27;;
14554;SDS011;7364;50.870;4.722;2023-02-15T04:22:42;41.83;;;26.67;;
14554;SDS011;7364;50.870;4.722;2023-02-15T04:25:27;41.47;;;28.77;;
14554;SDS011;7364;50.870;4.722;2023-02-15T04:27:55;45.33;;;28.73;;
14554;SDS011;7364;50.870;4.722;2023-02-15T04:30:22;38.67;;;28.43;;
14554;SDS011;7364;50.870;4.722;2023-02-15T04:32:52;44.57;;;28.93;;
14554;SDS011;7364;50.870;4.722;2023-02-15T04:35:20;41.90;;;27.20;;
14554;SDS011;7364;50.870;4.722;2023-02-15T04:37:49;38.07;;;28.70;;
14554;SDS011;7364;50.870;4.722;2023-02-15T04:40:17;39.77;;;27.07;;
14554;SDS011;7364;50.870;4.722;2023-02-15T04:42:47;38.07;;;27.63;;
14554;SDS011;7364;50.870;4.722;2023-02-15T04:45:14;36.63;;;27.40;;
14554;SDS011;7364;50.870;4.722;2023-02-15T04:47:42;36.47;;;26.00;;
14554;SDS011;7364;50.870;4.722;2023-02-15T04:50:10;38.17;;;27.00;;
14554;SDS011;7364;50.870;4.722;2023-02-15T04:52:37;37.57;;;27.33;;
14554;SDS011;7364;50.870;4.722;2023-02-15T04:55:06;42.50;;;27.87;;
14554;SDS011;7364;50.870;4.722;2023-02-15T04:57:34;37.20;;;28.43;;
14554;SDS011;7364;50.870;4.722;2023-02-15T05:00:01;43.13;;;28.17;;
14554;SDS011;7364;50.870;4.722;2023-02-15T05:02:30;44.10;;;28.63;;
14554;SDS011;7364;50.870;4.722;2023-02-15T05:04:57;40.77;;;27.97;;
14554;SDS011;7364;50.870;4.722;2023-02-15T05:07:24;41.53;;;28.97;;
14554;SDS011;7364;50.870;4.722;2023-02-15T05:09:52;40.73;;;28.33;;
14554;SDS011;7364;50.870;4.722;2023-02-15T05:12:20;46.03;;;29.47;;
14554;SDS011;7364;50.870;4.722;2023-02-15T05:14:47;40.27;;;29.77;;
14554;SDS011;7364;50.870;4.722;2023-02-15T05:17:15;44.43;;;29.87;;
14554;SDS011;7364;50.870;4.722;2023-02-15T05:19:43;44.30;;;28.07;;
14554;SDS011;7364;50.870;4.722;2023-02-15T05:22:10;43.37;;;29.80;;
14554;SDS011;7364;50.870;4.722;2023-02-15T05:24:37;44.57;;;28.40;;
14554;SDS011;7364;50.870;4.722;2023-02-15T05:27:23;41.27;;;28.93;;
14554;SDS011;7364;50.870;4.722;2023-02-15T05:30:09;38.80;;;27.60;;
14554;SDS011;7364;50.870;4.722;2023-02-15T05:32:37;41.50;;;30.10;;
14554;SDS011;7364;50.870;4.722;2023-02-15T05:35:05;40.33;;;28.67;;
14554;SDS011;7364;50.870;4.722;2023-02-15T05:37:32;50.97;;;30.60;;
14554;SDS011;7364;50.870;4.722;2023-02-15T05:40:00;33.70;;;26.63;;
14554;SDS011;7364;50.870;4.722;2023-02-15T05:42:28;43.87;;;28.93;;
14554;SDS011;7364;50.870;4.722;2023-02-15T05:44:56;50.03;;;28.50;;
14554;SDS011;7364;50.870;4.722;2023-02-15T05:47:23;44.03;;;28.03;;
14554;SDS011;7364;50.870;4.722;2023-02-15T05:49:50;37.53;;;28.13;;
14554;SDS011;7364;50.870;4.722;2023-02-15T05:52:17;39.90;;;28.23;;
14554;SDS011;7364;50.870;4.722;2023-02-15T05:54:44;46.23;;;28.77;;
14554;SDS011;7364;50.870;4.722;2023-02-15T05:57:12;41.93;;;28.80;;
14554;SDS011;7364;50.870;4.722;2023-02-15T05:59:40;47.47;;;29.60;;
14554;SDS011;7364;50.870;4.722;2023-02-15T06:02:07;44.07;;;30.47;;
14554;SDS011;7364;50.870;4.722;2023-02-15T06:04:35;44.60;;;30.40;;
14554;SDS011;7364;50.870;4.722;2023-02-15T06:07:03;38.87;;;29.07;;
14554;SDS011;7364;50.870;4.722;2023-02-15T06:09:30;46.40;;;29.67;;
14554;SDS011;7364;50.870;4.722;2023-02-15T06:11:58;43.30;;;29.47;;
14554;SDS011;7364;50.870;4.722;2023-02-15T06:14:25;45.37;;;30.83;;
14554;SDS011;7364;50.870;4.722;2023-02-15T06:16:53;40.80;;;28.73;;
14554;SDS011;7364;50.870;4.722;2023-02-15T06:19:21;46.50;;;30.93;;
14554;SDS011;7364;50.870;4.722;2023-02-15T06:21:48;40.87;;;30.40;;
14554;SDS011;7364;50.870;4.722;2023-02-15T06:24:16;42.83;;;30.80;;
14554;SDS011;7364;50.870;4.722;2023-02-15T06:26:43;48.53;;;29.73;;
14554;SDS011;7364;50.870;4.722;2023-02-15T06:29:10;43.83;;;29.10;;
14554;SDS011;7364;50.870;4.722;2023-02-15T06:31:38;46.83;;;32.83;;
14554;SDS011;7364;50.870;4.722;2023-02-15T06:34:07;41.77;;;33.20;;
14554;SDS011;7364;50.870;4.722;2023-02-15T06:36:34;46.17;;;33.50;;
14554;SDS011;7364;50.870;4.722;2023-02-15T06:39:02;46.53;;;32.70;;
14554;SDS011;7364;50.870;4.722;2023-02-15T06:41:29;52.17;;;32.60;;
14554;SDS011;7364;50.870;4.722;2023-02-15T06:43:57;48.20;;;32.77;;
14554;SDS011;7364;50.870;4.722;2023-02-15T06:46:24;40.13;;;32.33;;
14554;SDS011;7364;50.870;4.722;2023-02-15T06:48:51;41.03;;;30.03;;
14554;SDS011;7364;50.870;4.722;2023-02-15T06:51:20;42.10;;;31.20;;
14554;SDS011;7364;50.870;4.722;2023-02-15T06:53:47;46.10;;;31.53;;
14554;SDS011;7364;50.870;4.722;2023-02-15T06:56:15;49.60;;;30.77;;
14554;SDS011;7364;50.870;4.722;2023-02-15T06:58:42;41.83;;;29.43;;
14554;SDS011;7364;50.870;4.722;2023-02-15T07:01:11;49.03;;;30.03;;
14554;SDS011;7364;50.870;4.722;2023-02-15T07:03:39;64.57;;;40.63;;
14554;SDS011;7364;50.870;4.722;2023-02-15T07:06:07;46.57;;;33.33;;
14554;SDS011;7364;50.870;4.722;2023-02-15T07:08:37;38.37;;;28.77;;
14554;SDS011;7364;50.870;4.722;2023-02-15T07:11:05;41.57;;;30.23;;
14554;SDS011;7364;50.870;4.722;2023-02-15T07:13:50;45.50;;;32.23;;
14554;SDS011;7364;50.870;4.722;2023-02-15T07:16:18;39.83;;;28.40;;
14554;SDS011;7364;50.870;4.722;2023-02-15T07:18:46;46.73;;;30.17;;
14554;SDS011;7364;50.870;4.722;2023-02-15T07:21:13;40.40;;;29.57;;
14554;SDS011;7364;50.870;4.722;2023-02-15T07:23:42;51.03;;;31.90;;
14554;SDS011;7364;50.870;4.722;2023-02-15T07:26:09;42.90;;;30.00;;
14554;SDS011;7364;50.870;4.722;2023-02-15T07:28:37;46.30;;;31.30;;
14554;SDS011;7364;50.870;4.722;2023-02-15T07:31:05;43.63;;;30.33;;
14554;SDS011;7364;50.870;4.722;2023-02-15T07:33:33;40.27;;;29.57;;
14554;SDS011;7364;50.870;4.722;2023-02-15T07:36:02;47.53;;;30.23;;
14554;SDS011;7364;50.870;4.722;2023-02-15T07:38:31;45.07;;;30.23;;
14554;SDS011;7364;50.870;4.722;2023-02-15T07:41:05;34.63;;;28.60;;
14554;SDS011;7364;50.870;4.722;2023-02-15T07:43:34;41.00;;;30.60;;
14554;SDS011;7364;50.870;4.722;2023-02-15T07:46:03;46.60;;;31.43;;
14554;SDS011;7364;50.870;4.722;2023-02-15T07:48:33;40.73;;;28.37;;
14554;SDS011;7364;50.870;4.722;2023-02-15T07:51:02;45.23;;;28.33;;
14554;SDS011;7364;50.870;4.722;2023-02-15T07:53:30;44.67;;;28.27;;
14554;SDS011;7364;50.870;4.722;2023-02-15T07:55:58;46.53;;;30.90;;
14554;SDS011;7364;50.870;4.722;2023-02-15T07:58:28;41.47;;;29.60;;
14554;SDS011;7364;50.870;4.722;2023-02-15T08:01:09;48.43;;;28.17;;
14554;SDS011;7364;50.870;4.722;2023-02-15T08:03:37;48.57;;;30.40;;
14554;SDS011;7364;50.870;4.722;2023-02-15T08:06:05;46.00;;;30.20;;
14554;SDS011;7364;50.870;4.722;2023-02-15T08:08:33;47.13;;;32.57;;
14554;SDS011;7364;50.870;4.722;2023-02-15T08:11:01;51.03;;;31.33;;
14554;SDS011;7364;50.870;4.722;2023-02-15T08:13:50;49.87;;;32.90;;
14554;SDS011;7364;50.870;4.722;2023-02-15T08:16:28;48.07;;;32.37;;
14554;SDS011;7364;50.870;4.722;2023-02-15T08:18:57;50.90;;;31.07;;
14554;SDS011;7364;50.870;4.722;2023-02-15T08:21:29;46.20;;;30.10;;
14554;SDS011;7364;50.870;4.722;2023-02-15T08:23:57;38.37;;;28.97;;
14554;SDS011;7364;50.870;4.722;2023-02-15T08:26:25;48.40;;;29.70;;
14554;SDS011;7364;50.870;4.722;2023-02-15T08:28:55;41.90;;;31.13;;
14554;SDS011;7364;50.870;4.722;2023-02-15T08:31:25;45.17;;;29.27;;
14554;SDS011;7364;50.870;4.722;2023-02-15T08:33:53;43.00;;;29.63;;
14554;SDS011;7364;50.870;4.722;2023-02-15T08:36:26;38.57;;;30.30;;
14554;SDS011;7364;50.870;4.722;2023-02-15T08:38:56;43.10;;;31.27;;
14554;SDS011;7364;50.870;4.722;2023-02-15T08:41:25;40.77;;;29.80;;
14554;SDS011;7364;50.870;4.722;2023-02-15T08:43:56;47.37;;;30.43;;
14554;SDS011;7364;50.870;4.722;2023-02-15T08:46:26;44.73;;;30.10;;
14554;SDS011;7364;50.870;4.722;2023-02-15T08:48:55;39.53;;;29.07;;
14554;SDS011;7364;50.870;4.722;2023-02-15T08:51:23;43.00;;;28.97;;
14554;SDS011;7364;50.870;4.722;2023-02-15T08:53:52;41.50;;;29.70;;
14554;SDS011;7364;50.870;4.722;2023-02-15T08:56:21;39.17;;;27.67;;
14554;SDS011;7364;50.870;4.722;2023-02-15T08:58:51;38.33;;;27.00;;
14554;SDS011;7364;50.870;4.722;2023-02-15T09:01:21;39.23;;;28.23;;
14554;SDS011;7364;50.870;4.722;2023-02-15T09:03:50;39.03;;;27.20;;
14554;SDS011;7364;50.870;4.722;2023-02-15T09:06:22;44.80;;;27.50;;
14554;SDS011;7364;50.870;4.722;2023-02-15T09:08:50;37.47;;;26.20;;
14554;SDS011;7364;50.870;4.722;2023-02-15T09:11:21;40.50;;;26.57;;
14554;SDS011;7364;50.870;4.722;2023-02-15T09:13:52;38.03;;;25.93;;
14554;SDS011;7364;50.870;4.722;2023-02-15T09:16:22;49.13;;;28.07;;
14554;SDS011;7364;50.870;4.722;2023-02-15T09:18:51;34.87;;;26.23;;
14554;SDS011;7364;50.870;4.722;2023-02-15T09:21:19;36.40;;;26.30;;
14554;SDS011;7364;50.870;4.722;2023-02-15T09:23:49;31.23;;;25.40;;
14554;SDS011;7364;50.870;4.722;2023-02-15T09:26:19;36.50;;;25.77;;
14554;SDS011;7364;50.870;4.722;2023-02-15T09:28:48;37.10;;;26.70;;
14554;SDS011;7364;50.870;4.722;2023-02-15T09:31:23;46.03;;;27.57;;
14554;SDS011;7364;50.870;4.722;2023-02-15T09:33:51;39.07;;;27.30;;
14554;SDS011;7364;50.870;4.722;2023-02-15T09:36:20;35.20;;;25.37;;
14554;SDS011;7364;50.870;4.722;2023-02-15T09:38:52;31.17;;;22.73;;
14554;SDS011;7364;50.870;4.722;2023-02-15T09:44:23;31.47;;;23.73;;
14554;SDS011;7364;50.870;4.722;2023-02-15T09:47:08;36.07;;;26.03;;
14554;SDS011;7364;50.870;4.722;2023-02-15T09:49:57;33.37;;;24.10;;
14554;SDS011;7364;50.870;4.722;2023-02-15T09:52:34;26.20;;;22.93;;
14554;SDS011;7364;50.870;4.722;2023-02-15T09:55:21;34.13;;;22.63;;
14554;SDS011;7364;50.870;4.722;2023-02-15T09:58:01;33.90;;;24.03;;
14554;SDS011;7364;50.870;4.722;2023-02-15T10:00:36;35.40;;;24.00;;
14554;SDS011;7364;50.870;4.722;2023-02-15T10:03:16;34.07;;;25.47;;
14554;SDS011;7364;50.870;4.722;2023-02-15T10:05:59;34.80;;;24.47;;
14554;SDS011;7364;50.870;4.722;2023-02-15T10:08:47;38.60;;;26.20;;
14554;SDS011;7364;50.870;4.722;2023-02-15T10:11:41;29.50;;;22.93;;
14554;SDS011;7364;50.870;4.722;2023-02-15T10:17:22;33.77;;;24.33;;
14554;SDS011;7364;50.870;4.722;2023-02-15T10:20:06;32.57;;;23.20;;
14554;SDS011;7364;50.870;4.722;2023-02-15T10:22:48;30.17;;;21.40;;
14554;SDS011;7364;50.870;4.722;2023-02-15T10:25:33;36.17;;;24.20;;
14554;SDS011;7364;50.870;4.722;2023-02-15T10:28:11;29.93;;;24.83;;
14554;SDS011;7364;50.870;4.722;2023-02-15T10:30:46;30.37;;;23.13;;
14554;SDS011;7364;50.870;4.722;2023-02-15T10:33:25;28.77;;;21.83;;
14554;SDS011;7364;50.870;4.722;2023-02-15T10:36:08;25.23;;;19.00;;
14554;SDS011;7364;50.870;4.722;2023-02-15T10:38:51;28.63;;;21.77;;
14554;SDS011;7364;50.870;4.722;2023-02-15T10:41:29;26.07;;;20.03;;
14554;SDS011;7364;50.870;4.722;2023-02-15T10:44:06;22.43;;;19.43;;
14554;SDS011;7364;50.870;4.722;2023-02-15T10:46:48;27.10;;;18.43;;
14554;SDS011;7364;50.870;4.722;2023-02-15T10:49:36;26.57;;;19.73;;
14554;SDS011;7364;50.870;4.722;2023-02-15T10:52:21;29.33;;;19.83;;
14554;SDS011;7364;50.870;4.722;2023-02-15T10:54:57;25.83;;;19.70;;
14554;SDS011;7364;50.870;4.722;2023-02-15T10:57:37;25.60;;;20.40;;
14554;SDS011;7364;50.870;4.722;2023-02-15T11:00:15;30.00;;;21.97;;
14554;SDS011;7364;50.870;4.722;2023-02-15T11:02:52;27.03;;;20.43;;
14554;SDS011;7364;50.870;4.722;2023-02-15T11:05:36;29.90;;;21.30;;
14554;SDS011;7364;50.870;4.722;2023-02-15T11:08:10;26.73;;;21.57;;
14554;SDS011;7364;50.870;4.722;2023-02-15T11:10:39;25.60;;;21.23;;
14554;SDS011;7364;50.870;4.722;2023-02-15T11:13:13;28.43;;;21.97;;
14554;SDS011;7364;50.870;4.722;2023-02-15T11:15:43;28.93;;;22.73;;
14554;SDS011;7364;50.870;4.722;2023-02-15T11:18:15;24.17;;;21.63;;
14554;SDS011;7364;50.870;4.722;2023-02-15T11:20:52;29.87;;;20.73;;
14554;SDS011;7364;50.870;4.722;2023-02-15T11:23:24;28.17;;;20.87;;
14554;SDS011;7364;50.870;4.722;2023-02-15T11:25:56;29.60;;;21.57;;
14554;SDS011;7364;50.870;4.722;2023-02-15T11:28:27;32.23;;;21.73;;
14554;SDS011;7364;50.870;4.722;2023-02-15T11:31:01;23.53;;;19.73;;
14554;SDS011;7364;50.870;4.722;2023-02-15T11:33:37;29.13;;;21.53;;
14554;SDS011;7364;50.870;4.722;2023-02-15T11:36:11;29.03;;;20.80;;
14554;SDS011;7364;50.870;4.722;2023-02-15T11:39:01;23.93;;;20.77;;
14554;SDS011;7364;50.870;4.722;2023-02-15T11:41:37;28.83;;;20.73;;
14554;SDS011;7364;50.870;4.722;2023-02-15T11:44:11;25.63;;;21.80;;
14554;SDS011;7364;50.870;4.722;2023-02-15T11:46:46;30.17;;;20.70;;
14554;SDS011;7364;50.870;4.722;2023-02-15T11:49:19;37.43;;;22.27;;
14554;SDS011;7364;50.870;4.722;2023-02-15T11:51:52;23.83;;;20.70;;
14554;SDS011;7364;50.870;4.722;2023-02-15T11:54:23;30.43;;;21.37;;
14554;SDS011;7364;50.870;4.722;2023-02-15T11:56:55;29.37;;;21.70;;
14554;SDS011;7364;50.870;4.722;2023-02-15T11:59:27;27.50;;;22.37;;
14554;SDS011;7364;50.870;4.722;2023-02-15T12:01:59;32.33;;;22.30;;
14554;SDS011;7364;50.870;4.722;2023-02-15T12:04:28;28.17;;;23.00;;
14554;SDS011;7364;50.870;4.722;2023-02-15T12:07:02;31.07;;;22.67;;
14554;SDS011;7364;50.870;4.722;2023-02-15T12:09:45;33.73;;;22.53;;
14554;SDS011;7364;50.870;4.722;2023-02-15T12:12:20;29.77;;;22.70;;
14554;SDS011;7364;50.870;4.722;2023-02-15T12:14:49;25.70;;;22.00;;
14554;SDS011;7364;50.870;4.722;2023-02-15T12:17:18;33.13;;;22.60;;
14554;SDS011;7364;50.870;4.722;2023-02-15T12:19:52;29.60;;;23.07;;
14554;SDS011;7364;50.870;4.722;2023-02-15T12:22:22;31.30;;;23.27;;
14554;SDS011;7364;50.870;4.722;2023-02-15T12:24:55;32.43;;;24.10;;
14554;SDS011;7364;50.870;4.722;2023-02-15T12:27:26;29.77;;;24.70;;
14554;SDS011;7364;50.870;4.722;2023-02-15T12:30:01;30.50;;;23.30;;
14554;SDS011;7364;50.870;4.722;2023-02-15T12:32:34;31.90;;;24.03;;
14554;SDS011;7364;50.870;4.722;2023-02-15T12:35:13;33.07;;;25.00;;
14554;SDS011;7364;50.870;4.722;2023-02-15T12:37:51;28.90;;;23.87;;
14554;SDS011;7364;50.870;4.722;2023-02-15T12:40:23;30.87;;;24.57;;
14554;SDS011;7364;50.870;4.722;2023-02-15T12:42:52;29.03;;;23.53;;
14554;SDS011;7364;50.870;4.722;2023-02-15T12:45:22;31.73;;;25.80;;
14554;SDS011;7364;50.870;4.722;2023-02-15T12:48:13;34.93;;;24.70;;
14554;SDS011;7364;50.870;4.722;2023-02-15T12:50:42;30.10;;;24.00;;
14554;SDS011;7364;50.870;4.722;2023-02-15T12:53:15;30.23;;;24.60;;
14554;SDS011;7364;50.870;4.722;2023-02-15T12:55:54;37.00;;;26.27;;
14554;SDS011;7364;50.870;4.722;2023-02-15T12:58:23;31.00;;;24.20;;
14554;SDS011;7364;50.870;4.722;2023-02-15T13:01:02;35.93;;;22.87;;
14554;SDS011;7364;50.870;4.722;2023-02-15T13:03:31;29.67;;;23.30;;
14554;SDS011;7364;50.870;4.722;2023-02-15T13:05:58;33.97;;;22.83;;
14554;SDS011;7364;50.870;4.722;2023-02-15T13:08:27;28.83;;;23.10;;
14554;SDS011;7364;50.870;4.722;2023-02-15T13:10:58;34.40;;;25.20;;
14554;SDS011;7364;50.870;4.722;2023-02-15T13:13:29;31.90;;;25.63;;
14554;SDS011;7364;50.870;4.722;2023-02-15T13:16:01;35.70;;;24.97;;
14554;SDS011;7364;50.870;4.722;2023-02-15T13:18:32;31.90;;;25.40;;
14554;SDS011;7364;50.870;4.722;2023-02-15T13:21:04;32.10;;;24.40;;
14554;SDS011;7364;50.870;4.722;2023-02-15T13:23:38;33.97;;;25.23;;
14554;SDS011;7364;50.870;4.722;2023-02-15T13:26:10;30.60;;;24.37;;
14554;SDS011;7364;50.870;4.722;2023-02-15T13:28:42;26.40;;;23.53;;
14554;SDS011;7364;50.870;4.722;2023-02-15T13:31:13;31.53;;;24.20;;
14554;SDS011;7364;50.870;4.722;2023-02-15T13:33:45;31.80;;;24.77;;
14554;SDS011;7364;50.870;4.722;2023-02-15T13:36:20;34.67;;;24.40;;
14554;SDS011;7364;50.870;4.722;2023-02-15T13:38:55;32.73;;;24.70;;
14554;SDS011;7364;50.870;4.722;2023-02-15T13:41:32;28.50;;;24.30;;
14554;SDS011;7364;50.870;4.722;2023-02-15T13:44:05;33.13;;;26.67;;
14554;SDS011;7364;50.870;4.722;2023-02-15T13:46:45;33.77;;;26.43;;
14554;SDS011;7364;50.870;4.722;2023-02-15T13:49:23;34.10;;;26.27;;
14554;SDS011;7364;50.870;4.722;2023-02-15T13:52:11;36.23;;;25.13;;
14554;SDS011;7364;50.870;4.722;2023-02-15T13:54:55;33.50;;;25.23;;
14554;SDS011;7364;50.870;4.722;2023-02-15T13:57:43;28.90;;;23.57;;
14554;SDS011;7364;50.870;4.722;2023-02-15T14:00:29;31.60;;;25.50;;
14554;SDS011;7364;50.870;4.722;2023-02-15T14:03:15;29.10;;;25.10;;
14554;SDS011;7364;50.870;4.722;2023-02-15T14:06:14;33.60;;;24.37;;
14554;SDS011;7364;50.870;4.722;2023-02-15T14:09:00;45.57;;;26.60;;
14554;SDS011;7364;50.870;4.722;2023-02-15T14:11:42;30.83;;;24.77;;
14554;SDS011;7364;50.870;4.722;2023-02-15T14:17:15;33.90;;;25.67;;
14554;SDS011;7364;50.870;4.722;2023-02-15T14:19:50;32.83;;;25.10;;
14554;SDS011;7364;50.870;4.722;2023-02-15T14:22:26;34.23;;;23.93;;
14554;SDS011;7364;50.870;4.722;2023-02-15T14:25:01;35.47;;;23.73;;
14554;SDS011;7364;50.870;4.722;2023-02-15T14:27:47;32.53;;;24.37;;
14554;SDS011;7364;50.870;4.722;2023-02-15T14:30:26;33.93;;;24.30;;
14554;SDS011;7364;50.870;4.722;2023-02-15T14:32:59;34.27;;;25.00;;
14554;SDS011;7364;50.870;4.722;2023-02-15T14:35:32;34.27;;;25.73;;
14554;SDS011;7364;50.870;4.722;2023-02-15T14:38:02;28.63;;;23.77;;
14554;SDS011;7364;50.870;4.722;2023-02-15T14:40:39;34.00;;;25.70;;
14554;SDS011;7364;50.870;4.722;2023-02-15T14:43:31;33.63;;;24.57;;
14554;SDS011;7364;50.870;4.722;2023-02-15T14:46:19;33.03;;;24.83;;
14554;SDS011;7364;50.870;4.722;2023-02-15T14:48:52;36.57;;;24.37;;
14554;SDS011;7364;50.870;4.722;2023-02-15T14:57:26;31.20;;;24.83;;
14554;SDS011;7364;50.870;4.722;2023-02-15T14:59:56;34.17;;;25.53;;
14554;SDS011;7364;50.870;4.722;2023-02-15T15:02:27;31.30;;;25.07;;
14554;SDS011;7364;50.870;4.722;2023-02-15T15:05:07;30.70;;;25.73;;
14554;SDS011;7364;50.870;4.722;2023-02-15T15:07:43;33.13;;;24.53;;
14554;SDS011;7364;50.870;4.722;2023-02-15T15:18:57;30.47;;;25.20;;
14554;SDS011;7364;50.870;4.722;2023-02-15T15:36:20;29.03;;;24.00;;
14554;SDS011;7364;50.870;4.722;2023-02-15T15:39:04;35.07;;;25.70;;
14554;SDS011;7364;50.870;4.722;2023-02-15T15:41:47;34.00;;;26.10;;
14554;SDS011;7364;50.870;4.722;2023-02-15T15:44:35;34.37;;;25.80;;
14554;SDS011;7364;50.870;4.722;2023-02-15T15:47:36;29.30;;;23.53;;
14554;SDS011;7364;50.870;4.722;2023-02-15T15:50:16;33.33;;;24.37;;
14554;SDS011;7364;50.870;4.722;2023-02-15T15:52:49;38.27;;;26.73;;